Time;durP1;ratioP1;P1;durP2;ratioP2;P2;SDS_P1;SDS_P2;PMS_P1;PMS_P2;Temp;Humidity;BMP_temperature;BMP_pressure;BME280_temperature;BME280_humidity;BME280_pressure;Samples;Min_cycle;Max_cycle;Signal;HPM_P1;HPM_P2
2021/03/29 00:02:12;;;;;;;6.13;2.28;;;15.00;44.00;;;;;;6252382;28;20049;-75
2021/03/29 00:05:18;;;;;;;5.35;2.17;;;15.00;44.10;;;;;;6236193;28;20470;-75
2021/03/29 00:08:24;;;;;;;3.90;1.90;;;14.90;44.00;;;;;;6236137;28;20362;-75
2021/03/29 00:11:25;;;;;;;4.68;1.75;;;14.90;44.00;;;;;;6236199;28;20132;-75
2021/03/29 00:14:29;;;;;;;6.25;2.55;;;14.90;43.70;;;;;;6236044;28;20039;-75
2021/03/29 00:17:30;;;;;;;3.38;1.67;;;14.90;43.90;;;;;;6252205;28;20348;-75
2021/03/29 00:20:31;;;;;;;4.60;1.90;;;14.90;43.80;;;;;;6251501;28;20067;-75
2021/03/29 00:23:33;;;;;;;5.38;2.17;;;14.80;44.00;;;;;;6235686;28;20184;-74
2021/03/29 00:26:36;;;;;;;3.45;1.88;;;14.90;44.00;;;;;;6252058;28;20126;-75
2021/03/29 00:29:37;;;;;;;4.25;1.63;;;14.80;44.10;;;;;;6269824;28;20025;-74
2021/03/29 00:32:40;;;;;;;5.22;2.03;;;14.80;44.30;;;;;;6235461;28;20098;-75
2021/03/29 00:35:44;;;;;;;3.90;1.90;;;14.70;44.00;;;;;;6252259;28;20470;-75
2021/03/29 00:38:46;;;;;;;3.00;1.50;;;14.70;44.00;;;;;;6251578;28;20036;-74
2021/03/29 00:41:49;;;;;;;3.00;1.95;;;14.70;43.90;;;;;;6271922;28;20036;-77
2021/03/29 00:44:50;;;;;;;4.88;2.00;;;14.70;43.70;;;;;;6235286;28;20024;-74
2021/03/29 00:47:52;;;;;;;4.82;1.95;;;14.60;43.50;;;;;;6234324;28;20052;-74
2021/03/29 00:51:07;;;;;;;2.53;1.52;;;14.60;43.50;;;;;;6251574;28;20036;-74
2021/03/29 00:54:09;;;;;;;1.83;1.40;;;14.60;43.60;;;;;;6269067;28;20029;-74
2021/03/29 00:57:11;;;;;;;2.58;1.58;;;14.60;43.60;;;;;;6235021;28;20032;-74
2021/03/29 01:00:19;;;;;;;5.00;1.70;;;14.50;43.50;;;;;;6234276;28;20045;-75
2021/03/29 01:03:23;;;;;;;4.07;1.80;;;14.50;43.60;;;;;;6250960;28;20053;-74
2021/03/29 01:06:28;;;;;;;4.50;2.05;;;14.50;44.20;;;;;;6251346;28;20128;-75
2021/03/29 01:09:29;;;;;;;4.18;1.73;;;14.40;43.50;;;;;;6251282;28;20625;-75
2021/03/29 01:12:31;;;;;;;5.28;1.95;;;14.40;43.70;;;;;;6251176;28;20483;-75
2021/03/29 01:15:32;;;;;;;4.88;1.92;;;14.30;43.60;;;;;;6235018;28;20021;-75
2021/03/29 01:18:34;;;;;;;7.15;1.58;;;14.30;43.60;;;;;;6251162;28;20371;-75
2021/03/29 01:22:01;;;;;;;6.78;1.80;;;14.30;43.80;;;;;;6249735;28;20028;-74
2021/03/29 01:25:19;;;;;;;3.72;1.98;;;14.30;43.80;;;;;;6275670;28;20445;-74
2021/03/29 01:28:22;;;;;;;7.13;2.05;;;14.30;43.90;;;;;;6275555;28;20068;-74
2021/03/29 01:31:24;;;;;;;2.65;1.63;;;14.20;44.00;;;;;;6275263;28;20028;-74
2021/03/29 01:34:26;;;;;;;9.90;2.17;;;14.20;44.10;;;;;;6275724;28;20034;-74
2021/03/29 01:37:29;;;;;;;6.53;1.90;;;14.20;44.20;;;;;;6276007;28;20063;-76
2021/03/29 01:40:34;;;;;;;2.28;1.63;;;14.20;44.30;;;;;;6275416;28;20111;-74
2021/03/29 01:43:35;;;;;;;3.25;1.52;;;14.10;44.30;;;;;;6275528;28;20103;-74
2021/03/29 01:46:37;;;;;;;6.65;1.80;;;14.10;44.20;;;;;;6293084;28;20454;-75
2021/03/29 01:49:39;;;;;;;3.20;1.88;;;14.10;44.10;;;;;;6275573;28;20028;-74
2021/03/29 01:52:40;;;;;;;3.30;1.83;;;14.10;44.30;;;;;;6258812;28;20510;-74
2021/03/29 01:55:42;;;;;;;3.80;1.95;;;14.10;44.40;;;;;;6275524;28;20490;-74
2021/03/29 01:58:43;;;;;;;3.75;1.80;;;14.10;44.50;;;;;;6275310;28;20067;-75
2021/03/29 02:01:45;;;;;;;6.47;2.22;;;14.10;44.60;;;;;;6260982;28;20060;-75
2021/03/29 02:04:47;;;;;;;2.97;1.67;;;14.00;44.60;;;;;;6250564;28;20065;-74
2021/03/29 02:07:50;;;;;;;3.53;1.70;;;14.00;44.80;;;;;;6250775;28;20440;-74
2021/03/29 02:10:52;;;;;;;6.57;1.88;;;13.90;44.90;;;;;;6234493;28;20036;-75
2021/03/29 02:13:55;;;;;;;4.15;2.05;;;13.90;45.00;;;;;;6251477;28;20435;-74
2021/03/29 02:16:57;;;;;;;4.95;2.25;;;13.80;45.20;;;;;;6234436;28;20355;-75
2021/03/29 02:19:58;;;;;;;3.17;2.17;;;13.80;45.40;;;;;;6250820;28;20069;-74
2021/03/29 02:23:00;;;;;;;7.35;1.98;;;13.80;45.40;;;;;;6268197;28;20447;-75
2021/03/29 02:26:03;;;;;;;4.22;2.42;;;13.70;45.50;;;;;;6250500;28;20395;-74
2021/03/29 02:29:05;;;;;;;5.93;2.50;;;13.70;45.50;;;;;;6250363;28;20111;-73
2021/03/29 02:32:06;;;;;;;5.30;1.92;;;13.70;45.50;;;;;;6250553;28;20115;-76
2021/03/29 02:35:08;;;;;;;3.60;1.75;;;13.70;45.50;;;;;;6250338;28;20078;-73
2021/03/29 02:38:15;;;;;;;12.13;1.95;;;13.70;45.50;;;;;;6267925;28;20552;-74
2021/03/29 02:41:20;;;;;;;4.45;2.00;;;13.70;45.40;;;;;;6250413;28;20425;-75
2021/03/29 02:44:21;;;;;;;6.93;1.92;;;13.70;45.40;;;;;;6238528;28;20021;-75
2021/03/29 02:47:22;;;;;;;3.97;1.90;;;13.60;45.00;;;;;;6254813;28;20363;-75
2021/03/29 02:50:25;;;;;;;5.95;2.30;;;13.60;45.50;;;;;;6240409;28;20043;-75
2021/03/29 02:53:30;;;;;;;4.25;2.15;;;13.60;45.50;;;;;;6254543;28;20413;-75
2021/03/29 02:56:41;;;;;;;4.43;1.90;;;13.60;45.40;;;;;;6238197;28;20509;-75
2021/03/29 02:59:43;;;;;;;4.05;1.80;;;13.60;45.40;;;;;;6254308;28;20434;-75
2021/03/29 03:02:45;;;;;;;13.95;1.92;;;13.50;45.40;;;;;;6253926;28;20044;-76
2021/03/29 03:05:50;;;;;;;2.78;1.60;;;13.50;45.80;;;;;;6254349;28;20053;-75
2021/03/29 03:08:52;;;;;;;5.28;1.73;;;13.50;45.80;;;;;;6254264;28;20029;-75
2021/03/29 03:11:53;;;;;;;4.82;1.70;;;13.40;45.70;;;;;;6254198;28;20044;-74
2021/03/29 03:14:55;;;;;;;3.60;1.80;;;13.40;45.80;;;;;;6237444;28;20451;-75
2021/03/29 03:17:58;;;;;;;4.55;2.17;;;13.40;45.80;;;;;;6237034;28;20372;-75
2021/03/29 03:20:59;;;;;;;4.45;2.35;;;13.30;46.00;;;;;;6237302;28;20089;-75
2021/03/29 03:24:03;;;;;;;5.57;2.58;;;13.30;46.50;;;;;;6237190;28;20517;-75
2021/03/29 03:27:08;;;;;;;6.13;2.58;;;13.20;47.50;;;;;;6261849;28;20089;-75
2021/03/29 03:30:16;;;;;;;8.32;2.92;;;13.20;48.30;;;;;;6261783;28;20170;-75
2021/03/29 03:33:20;;;;;;;9.55;3.03;;;13.20;49.20;;;;;;6294499;28;20025;-73
2021/03/29 03:36:23;;;;;;;7.38;2.25;;;13.10;49.80;;;;;;6285039;28;20036;-76
2021/03/29 03:39:25;;;;;;;7.90;2.85;;;13.10;50.20;;;;;;6261547;28;20462;-75
2021/03/29 03:42:26;;;;;;;5.60;2.53;;;13.10;50.40;;;;;;6261810;28;20067;-75
2021/03/29 03:45:30;;;;;;;5.22;3.00;;;13.00;50.30;;;;;;6295983;28;20078;-75
2021/03/29 03:48:32;;;;;;;8.73;3.05;;;13.00;50.70;;;;;;6278191;28;20037;-75
2021/03/29 03:51:33;;;;;;;5.25;2.33;;;13.00;51.10;;;;;;6302108;28;20028;-76
2021/03/29 03:54:35;;;;;;;5.00;2.40;;;12.90;51.10;;;;;;6263330;28;20128;-75
2021/03/29 03:57:37;;;;;;;7.15;3.30;;;12.80;51.40;;;;;;6277873;28;20040;-76
2021/03/29 04:00:38;;;;;;;6.35;2.80;;;12.80;51.70;;;;;;6277993;28;20036;-74
2021/03/29 04:03:39;;;;;;;12.80;2.88;;;12.70;51.80;;;;;;6274502;28;20068;-75
2021/03/29 04:06:41;;;;;;;4.60;2.45;;;12.60;51.90;;;;;;6295427;28;20741;-75
2021/03/29 04:09:51;;;;;;;4.78;2.85;;;12.60;52.20;;;;;;6277693;28;20414;-74
2021/03/29 04:12:53;;;;;;;4.53;2.10;;;12.50;52.30;;;;;;6294325;28;20017;-74
2021/03/29 04:16:03;;;;;;;7.75;3.08;;;12.50;52.50;;;;;;6277312;28;20027;-76
2021/03/29 04:19:04;;;;;;;5.68;2.53;;;12.40;52.50;;;;;;6292154;28;20062;-76
2021/03/29 04:22:05;;;;;;;7.05;2.35;;;12.40;52.50;;;;;;6318320;28;20091;-74
2021/03/29 04:25:08;;;;;;;5.50;2.80;;;12.40;52.70;;;;;;6301155;28;20479;-76
2021/03/29 04:28:10;;;;;;;7.75;3.38;;;12.40;52.90;;;;;;6298747;28;20055;-75
2021/03/29 04:31:11;;;;;;;5.63;3.50;;;12.30;52.90;;;;;;6276891;28;20498;-73
2021/03/29 04:34:12;;;;;;;6.70;3.97;;;12.20;53.10;;;;;;6277128;28;20042;-74
2021/03/29 04:37:13;;;;;;;8.93;3.80;;;12.20;53.30;;;;;;6269644;28;20039;-75
2021/03/29 04:40:14;;;;;;;8.98;3.78;;;12.20;53.50;;;;;;6284222;28;20538;-76
2021/03/29 04:43:15;;;;;;;8.38;3.30;;;12.10;53.70;;;;;;6300917;28;20043;-75
2021/03/29 04:46:15;;;;;;;5.13;2.88;;;12.00;54.00;;;;;;6279201;28;20351;-75
2021/03/29 04:49:16;;;;;;;6.18;2.80;;;12.00;54.20;;;;;;6274683;28;20024;-75
2021/03/29 04:52:18;;;;;;;4.18;2.33;;;11.90;54.30;;;;;;6294244;28;20060;-76
2021/03/29 04:55:20;;;;;;;9.10;2.90;;;11.80;54.50;;;;;;6276901;28;20043;-75
2021/03/29 04:58:21;;;;;;;8.93;2.90;;;11.90;54.60;;;;;;6294237;28;20066;-75
2021/03/29 05:01:22;;;;;;;6.80;2.72;;;11.90;54.80;;;;;;6275661;28;20366;-74
2021/03/29 05:04:23;;;;;;;6.05;2.40;;;11.90;54.80;;;;;;6275760;28;20538;-76
2021/03/29 05:07:24;;;;;;;10.75;2.95;;;11.90;54.90;;;;;;6314372;28;20094;-77
2021/03/29 05:10:25;;;;;;;6.15;2.90;;;11.90;54.80;;;;;;6247716;28;20375;-76
2021/03/29 05:13:26;;;;;;;6.03;2.92;;;11.90;54.70;;;;;;6269676;28;20028;-75
2021/03/29 05:16:27;;;;;;;3.65;2.53;;;11.90;54.50;;;;;;6259539;28;20478;-73
2021/03/29 05:19:28;;;;;;;8.43;2.53;;;11.90;54.40;;;;;;6259530;28;20028;-74
2021/03/29 05:22:29;;;;;;;9.95;2.85;;;12.00;54.30;;;;;;6292290;28;20036;-75
2021/03/29 05:25:30;;;;;;;8.40;3.10;;;12.00;54.10;;;;;;6276330;28;20024;-74
2021/03/29 05:28:31;;;;;;;9.90;3.25;;;12.10;54.00;;;;;;6282906;28;20114;-75
2021/03/29 05:31:39;;;;;;;8.23;3.17;;;12.10;53.90;;;;;;6304789;28;20077;-74
2021/03/29 05:34:41;;;;;;;8.07;2.83;;;12.20;53.90;;;;;;6258375;28;20094;-76
2021/03/29 05:37:42;;;;;;;9.05;3.03;;;12.20;53.80;;;;;;6275544;28;20095;-75
2021/03/29 05:40:43;;;;;;;5.00;2.80;;;12.10;53.80;;;;;;6275410;28;20040;-76
2021/03/29 05:43:44;;;;;;;7.60;2.95;;;12.10;53.90;;;;;;6258958;28;20114;-76
2021/03/29 05:46:46;;;;;;;9.38;2.92;;;12.10;53.60;;;;;;6275246;28;20028;-76
2021/03/29 05:49:47;;;;;;;7.32;2.90;;;12.10;53.40;;;;;;6295214;28;20453;-75
2021/03/29 05:52:48;;;;;;;11.13;3.10;;;12.10;53.70;;;;;;6299647;28;20074;-75
2021/03/29 05:55:51;;;;;;;10.90;3.67;;;12.10;53.70;;;;;;6293382;28;20546;-74
2021/03/29 05:59:06;;;;;;;6.80;2.90;;;12.20;54.00;;;;;;6258900;28;20036;-76
2021/03/29 06:02:24;;;;;;;11.95;3.38;;;12.20;53.80;;;;;;6292398;28;20185;-79
2021/03/29 06:05:32;;;;;;;8.65;2.63;;;12.20;53.60;;;;;;6272900;28;20677;-75
2021/03/29 06:08:41;;;;;;;5.30;2.45;;;12.20;53.10;;;;;;6242120;28;20771;-74
2021/03/29 06:11:48;;;;;;;8.52;2.67;;;12.20;52.70;;;;;;6294140;28;20028;-74
2021/03/29 06:15:00;;;;;;;14.00;3.05;;;12.20;52.00;;;;;;6315880;28;20036;-76
2021/03/29 06:18:14;;;;;;;7.65;2.67;;;12.20;51.40;;;;;;6301747;28;20046;-76
2021/03/29 06:21:15;;;;;;;5.82;2.67;;;12.30;51.20;;;;;;6303786;28;20035;-76
2021/03/29 06:24:16;;;;;;;7.15;2.35;;;12.30;50.80;;;;;;6287077;28;20626;-76
2021/03/29 06:27:21;;;;;;;7.13;3.38;;;12.30;50.60;;;;;;6286869;28;20020;-76
2021/03/29 06:30:31;;;;;;;11.73;3.58;;;12.40;50.10;;;;;;6292605;28;20039;-76
2021/03/29 06:33:44;;;;;;;8.13;3.60;;;12.40;49.90;;;;;;6262736;28;20033;-74
2021/03/29 06:36:45;;;;;;;10.10;2.97;;;12.40;49.80;;;;;;6279881;28;20028;-75
2021/03/29 06:39:46;;;;;;;13.75;3.72;;;12.40;49.80;;;;;;6293111;28;20035;-75
2021/03/29 06:42:46;;;;;;;9.05;3.25;;;12.40;49.90;;;;;;6303258;28;20031;-75
2021/03/29 06:45:51;;;;;;;9.18;3.45;;;12.60;50.00;;;;;;6302861;28;20119;-75
2021/03/29 06:48:54;;;;;;;10.10;3.50;;;12.60;50.20;;;;;;6303655;28;20024;-75
2021/03/29 06:51:55;;;;;;;5.65;2.70;;;12.70;50.30;;;;;;6290117;28;20111;-75
2021/03/29 06:55:26;;;;;;;3.60;2.47;;;12.70;50.20;;;;;;6273544;28;20343;-74
2021/03/29 06:58:27;;;;;;;16.02;3.05;;;12.80;50.20;;;;;;6282092;28;20446;-75
2021/03/29 07:01:29;;;;;;;7.68;2.25;;;12.90;50.00;;;;;;6284561;28;20028;-74
2021/03/29 07:04:32;;;;;;;4.75;2.35;;;13.00;49.60;;;;;;6305491;28;20485;-74
2021/03/29 07:07:33;;;;;;;6.13;2.83;;;13.10;48.90;;;;;;6303182;28;20080;-75
2021/03/29 07:10:35;;;;;;;5.95;2.20;;;13.10;48.40;;;;;;6320922;28;20504;-75
2021/03/29 07:13:39;;;;;;;5.72;2.35;;;13.30;48.10;;;;;;6286796;28;20034;-75
2021/03/29 07:16:41;;;;;;;4.80;2.55;;;13.30;47.90;;;;;;6302761;28;20784;-75
2021/03/29 07:19:44;;;;;;;6.50;3.05;;;13.40;47.90;;;;;;6303865;28;20384;-76
2021/03/29 07:22:45;;;;;;;6.93;2.72;;;13.40;47.70;;;;;;6291834;28;20429;-74
2021/03/29 07:25:46;;;;;;;8.25;2.75;;;13.50;47.50;;;;;;6295677;28;20029;-74
2021/03/29 07:28:49;;;;;;;10.98;2.90;;;13.70;47.40;;;;;;6261116;28;20028;-75
2021/03/29 07:31:58;;;;;;;8.15;2.88;;;13.80;47.30;;;;;;6284690;28;20136;-75
2021/03/29 07:35:00;;;;;;;9.32;3.78;;;13.90;47.20;;;;;;6261890;28;20032;-74
2021/03/29 07:38:01;;;;;;;4.03;2.83;;;14.10;47.00;;;;;;6261781;28;20098;-75
2021/03/29 07:41:02;;;;;;;6.03;2.65;;;14.20;46.80;;;;;;6278177;28;20048;-76
2021/03/29 07:44:18;;;;;;;4.40;2.67;;;14.40;46.50;;;;;;6295346;28;20110;-75
2021/03/29 07:47:58;;;;;;;7.78;2.80;;;14.60;45.80;;;;;;6281169;28;20387;-75
2021/03/29 07:51:00;;;;;;;;;;;14.70;45.30;;;;;;6176660;28;20109;-74
2021/03/29 07:54:01;;;;;;;9.30;3.05;;;14.80;44.80;;;;;;6176378;28;19909;-75
2021/03/29 07:57:03;;;;;;;9.68;2.67;;;14.80;44.50;;;;;;6176056;28;20400;-75
2021/03/29 08:00:04;;;;;;;8.70;3.60;;;14.80;44.60;;;;;;6175860;28;20039;-76
2021/03/29 08:03:12;;;;;;;8.98;4.00;;;14.90;44.80;;;;;;6163463;28;20540;-75
2021/03/29 08:06:38;;;;;;;6.68;3.42;;;15.00;44.80;;;;;;6191609;28;20036;-75
2021/03/29 08:09:42;;;;;;;8.23;3.20;;;15.10;44.90;;;;;;6186646;28;20133;-75
2021/03/29 08:12:56;;;;;;;12.05;3.72;;;15.30;44.70;;;;;;6150444;28;20041;-76
2021/03/29 08:16:14;;;;;;;13.10;3.78;;;15.40;44.60;;;;;;6152664;28;20473;-75
2021/03/29 08:19:18;;;;;;;8.43;3.30;;;15.50;44.50;;;;;;6168295;28;20054;-76
2021/03/29 08:22:19;;;;;;;8.30;3.85;;;15.80;44.40;;;;;;6152380;28;20106;-76
2021/03/29 08:25:30;;;;;;;6.13;3.80;;;16.00;44.30;;;;;;6152495;28;20045;-76
2021/03/29 08:29:09;;;;;;;5.40;3.58;;;16.20;43.90;;;;;;6288739;28;20075;-75
2021/03/29 08:32:40;;;;;;;10.27;3.50;;;16.30;43.50;;;;;;6294109;28;20033;-75
2021/03/29 08:35:44;;;;;;;13.40;3.78;;;16.50;43.00;;;;;;6285466;28;20033;-74
2021/03/29 08:38:45;;;;;;;10.93;3.63;;;16.70;42.70;;;;;;6293774;28;20047;-76
2021/03/29 08:41:50;;;;;;;8.25;3.38;;;16.70;42.20;;;;;;6293209;28;20032;-75
2021/03/29 08:44:52;;;;;;;7.72;3.65;;;16.80;41.70;;;;;;6276028;28;20036;-76
2021/03/29 08:47:55;;;;;;;14.60;3.78;;;16.90;41.70;;;;;;6275914;28;20027;-75
2021/03/29 08:50:57;;;;;;;5.85;3.05;;;17.10;41.60;;;;;;6252714;28;20121;-77
2021/03/29 08:54:09;;;;;;;4.70;2.95;;;17.20;40.90;;;;;;6275913;28;20040;-76
2021/03/29 08:57:10;;;;;;;5.68;3.08;;;17.30;40.60;;;;;;6276245;28;20033;-76
2021/03/29 09:00:20;;;;;;;11.63;3.40;;;17.40;40.50;;;;;;6258654;28;20517;-75
2021/03/29 09:03:23;;;;;;;7.38;3.50;;;17.50;40.60;;;;;;6258468;28;20086;-76
2021/03/29 09:06:24;;;;;;;23.75;9.80;;;17.60;40.40;;;;;;6275336;28;20095;-75
2021/03/29 09:09:30;;;;;;;16.42;8.32;;;17.70;40.10;;;;;;6283584;28;20212;-76
2021/03/29 09:12:32;;;;;;;10.00;3.53;;;17.90;39.90;;;;;;6318810;28;20335;-75
2021/03/29 09:15:36;;;;;;;3.92;2.20;;;18.00;39.60;;;;;;6293311;28;20036;-77
2021/03/29 09:18:37;;;;;;;10.57;4.00;;;18.10;39.30;;;;;;6300214;28;20131;-76
2021/03/29 09:21:39;;;;;;;8.60;3.55;;;18.20;39.10;;;;;;6285179;28;20024;-75
2021/03/29 09:24:40;;;;;;;3.15;2.10;;;18.30;38.90;;;;;;6293992;28;20504;-77
2021/03/29 09:27:43;;;;;;;5.15;2.60;;;18.50;38.60;;;;;;6293269;28;20044;-76
2021/03/29 09:30:51;;;;;;;8.82;3.63;;;18.60;38.30;;;;;;6292108;28;20059;-75
2021/03/29 09:33:53;;;;;;;11.25;3.42;;;18.70;37.90;;;;;;6275361;28;20387;-77
2021/03/29 09:36:55;;;;;;;7.05;3.15;;;18.70;37.70;;;;;;6292274;28;20384;-75
2021/03/29 09:40:03;;;;;;;5.60;2.05;;;18.80;37.50;;;;;;6287636;28;20031;-74
2021/03/29 09:43:04;;;;;;;13.43;2.05;;;18.90;37.60;;;;;;6282484;28;20439;-76
2021/03/29 09:46:05;;;;;;;6.75;2.60;;;19.00;37.20;;;;;;6298839;28;20043;-77
2021/03/29 09:49:16;;;;;;;6.28;2.50;;;19.00;37.30;;;;;;6315253;28;20081;-76
2021/03/29 09:52:17;;;;;;;8.45;2.63;;;19.10;37.10;;;;;;6316498;28;20623;-76
2021/03/29 09:55:18;;;;;;;12.70;2.50;;;19.10;36.60;;;;;;6268327;28;20035;-75
2021/03/29 09:58:42;;;;;;;5.90;2.20;;;19.20;36.90;;;;;;6274743;28;20555;-75
2021/03/29 10:01:43;;;;;;;6.63;2.42;;;19.20;36.80;;;;;;6274539;28;20205;-76
2021/03/29 10:04:46;;;;;;;7.68;2.53;;;19.30;36.80;;;;;;6257529;28;20055;-76
2021/03/29 10:07:55;;;;;;;4.57;2.28;;;19.40;36.80;;;;;;6274732;28;20462;-76
2021/03/29 10:11:09;;;;;;;9.32;2.47;;;19.40;36.90;;;;;;6291232;28;20101;-76
2021/03/29 10:14:10;;;;;;;7.95;2.92;;;19.50;36.90;;;;;;6297712;28;20020;-75
2021/03/29 10:17:19;;;;;;;5.75;3.15;;;19.60;36.50;;;;;;6316473;28;20091;-75
2021/03/29 10:20:20;;;;;;;6.80;3.30;;;19.70;36.40;;;;;;6275481;28;20032;-76
2021/03/29 10:23:27;;;;;;;8.68;2.40;;;19.80;36.30;;;;;;6311350;28;20020;-75
2021/03/29 10:26:32;;;;;;;6.10;2.13;;;19.80;35.90;;;;;;6271118;28;20040;-76
2021/03/29 10:29:40;;;;;;;5.18;2.38;;;19.90;35.70;;;;;;6257907;28;20032;-75
2021/03/29 10:32:41;;;;;;;11.25;2.55;;;20.00;36.00;;;;;;6274550;28;20514;-76
2021/03/29 10:35:42;;;;;;;2.60;1.80;;;20.00;35.10;;;;;;6274789;28;20017;-76
2021/03/29 10:38:44;;;;;;;4.32;2.13;;;20.10;35.20;;;;;;6254063;28;20221;-75
2021/03/29 10:41:45;;;;;;;7.50;2.17;;;20.30;35.30;;;;;;6241314;28;20031;-76
2021/03/29 10:44:46;;;;;;;5.47;2.50;;;20.50;35.10;;;;;;6274234;28;20516;-75
2021/03/29 10:47:48;;;;;;;8.18;3.05;;;21.00;34.40;;;;;;6257586;28;20472;-75
2021/03/29 10:50:49;;;;;;;3.42;1.88;;;21.30;33.80;;;;;;6274089;28;20054;-74
2021/03/29 10:53:49;;;;;;;8.15;2.20;;;21.70;33.30;;;;;;6274042;28;20474;-76
2021/03/29 10:56:50;;;;;;;5.00;2.00;;;22.10;32.60;;;;;;6291352;28;20035;-76
2021/03/29 10:59:51;;;;;;;6.05;2.22;;;22.40;32.00;;;;;;6291838;28;20588;-76
2021/03/29 11:02:53;;;;;;;5.97;1.42;;;22.80;31.40;;;;;;6285659;28;20655;-77
2021/03/29 11:05:54;;;;;;;9.30;2.05;;;23.10;30.50;;;;;;6277815;28;20024;-77
2021/03/29 11:08:55;;;;;;;7.22;2.03;;;23.50;29.70;;;;;;6296140;28;20490;-74
2021/03/29 11:11:56;;;;;;;3.00;1.65;;;23.80;29.10;;;;;;6262044;28;20024;-75
2021/03/29 11:14:56;;;;;;;3.35;1.50;;;24.10;28.70;;;;;;6278147;28;20036;-76
2021/03/29 11:17:57;;;;;;;3.70;1.80;;;24.40;28.40;;;;;;6312982;28;20024;-76
2021/03/29 11:20:58;;;;;;;3.15;1.67;;;24.70;28.00;;;;;;6318227;28;20378;-75
2021/03/29 11:24:00;;;;;;;12.23;1.98;;;24.90;27.20;;;;;;6285450;28;20610;-75
2021/03/29 11:27:01;;;;;;;4.10;1.35;;;25.10;26.90;;;;;;6287799;28;20367;-75
2021/03/29 11:30:07;;;;;;;8.52;2.20;;;25.30;26.70;;;;;;6292995;28;20477;-76
2021/03/29 11:33:08;;;;;;;3.08;1.80;;;25.50;26.40;;;;;;6287918;28;20178;-76
2021/03/29 11:36:09;;;;;;;6.90;1.52;;;25.60;25.80;;;;;;6293967;28;20634;-76
2021/03/29 11:39:11;;;;;;;7.20;1.40;;;25.70;25.70;;;;;;6277573;28;20032;-76
2021/03/29 11:42:12;;;;;;;2.92;1.70;;;25.80;25.40;;;;;;6277734;28;20016;-76
2021/03/29 11:45:14;;;;;;;6.05;1.67;;;25.90;24.80;;;;;;6260994;28;20085;-76
2021/03/29 11:48:15;;;;;;;5.32;2.10;;;26.00;24.80;;;;;;6294075;28;20093;-76
2021/03/29 11:51:16;;;;;;;2.13;1.20;;;26.30;24.40;;;;;;6303766;28;20032;-75
2021/03/29 11:54:16;;;;;;;7.25;1.77;;;26.40;24.00;;;;;;6301278;28;20043;-76
2021/03/29 11:57:18;;;;;;;2.22;1.65;;;26.60;23.40;;;;;;6301029;28;20060;-77
2021/03/29 12:00:31;;;;;;;3.47;1.33;;;26.90;23.50;;;;;;6281950;28;20428;-74
2021/03/29 12:03:37;;;;;;;2.55;1.63;;;27.20;23.20;;;;;;6260195;28;20044;-75
2021/03/29 12:06:45;;;;;;;2.35;1.27;;;27.60;23.00;;;;;;6294086;28;20029;-76
2021/03/29 12:12:49;;;;;;;2.83;1.77;;;28.40;22.40;;;;;;6297409;28;20502;-74
2021/03/29 12:15:54;;;;;;;2.83;1.60;;;28.70;22.10;;;;;;6277930;28;20028;-77
2021/03/29 12:18:57;;;;;;;2.78;1.40;;;29.30;21.80;;;;;;6284930;28;20093;-76
2021/03/29 12:22:05;;;;;;;7.00;2.42;;;29.80;21.30;;;;;;6282427;28;20087;-76
2021/03/29 12:25:06;;;;;;;;;;;30.30;20.90;;;;;;6321860;28;20016;-75
2021/03/29 12:28:08;;;;;;;2.03;1.25;;;31.00;20.40;;;;;;6287843;28;19909;-77
2021/03/29 12:31:09;;;;;;;2.20;1.35;;;31.40;19.90;;;;;;6281394;28;20032;-75
2021/03/29 12:34:12;;;;;;;3.67;1.55;;;31.90;19.20;;;;;;6296494;28;20032;-75
2021/03/29 12:37:14;;;;;;;3.20;1.75;;;32.40;19.00;;;;;;6277360;28;20052;-76
2021/03/29 12:40:25;;;;;;;2.25;1.23;;;32.90;18.50;;;;;;6284774;28;20032;-75
2021/03/29 12:43:47;;;;;;;4.63;1.60;;;33.50;18.30;;;;;;6301108;28;20470;-75
2021/03/29 12:46:51;;;;;;;3.28;1.42;;;34.10;17.90;;;;;;6317863;28;20462;-75
2021/03/29 12:49:52;;;;;;;2.85;1.52;;;34.70;17.60;;;;;;6300503;28;20032;-76
2021/03/29 12:52:55;;;;;;;2.83;1.42;;;35.20;17.60;;;;;;6300736;28;20031;-76
2021/03/29 12:55:57;;;;;;;3.63;1.63;;;35.30;16.60;;;;;;6300932;28;20758;-76
2021/03/29 12:58:58;;;;;;;3.92;1.55;;;35.30;16.50;;;;;;6300936;28;20028;-75
2021/03/29 13:01:59;;;;;;;4.75;2.10;;;35.50;16.60;;;;;;6293487;28;20136;-76
2021/03/29 13:05:00;;;;;;;2.95;1.63;;;35.90;16.20;;;;;;6243587;28;20101;-77
2021/03/29 13:08:08;;;;;;;2.95;1.60;;;36.20;15.60;;;;;;6293129;28;20043;-76
2021/03/29 13:11:30;;;;;;;2.47;1.52;;;36.10;15.60;;;;;;6273480;28;20032;-75
2021/03/29 13:15:05;;;;;;;5.05;1.50;;;36.30;15.30;;;;;;6295807;28;20089;-76
2021/03/29 13:18:06;;;;;;;5.57;1.52;;;36.40;14.90;;;;;;6300332;28;20119;-76
2021/03/29 13:21:07;;;;;;;3.65;1.40;;;36.50;14.80;;;;;;6276433;28;20057;-76
2021/03/29 13:24:10;;;;;;;2.13;1.27;;;36.70;14.40;;;;;;6271289;28;20052;-76
2021/03/29 13:27:11;;;;;;;4.25;1.30;;;36.80;14.30;;;;;;6299572;28;20024;-76
2021/03/29 13:30:17;;;;;;;4.55;1.30;;;37.00;14.20;;;;;;6317070;28;20024;-77
2021/03/29 13:33:18;;;;;;;1.63;1.33;;;37.10;14.20;;;;;;6303374;28;20028;-75
2021/03/29 13:36:19;;;;;;;1.70;1.15;;;37.20;14.10;;;;;;6276317;28;20044;-76
2021/03/29 13:39:20;;;;;;;2.33;1.65;;;37.10;14.30;;;;;;6276457;28;20047;-78
2021/03/29 13:42:22;;;;;;;2.67;1.50;;;37.20;14.20;;;;;;6272618;28;20042;-76
2021/03/29 13:45:25;;;;;;;4.30;1.35;;;37.10;14.10;;;;;;6286894;28;20134;-75
2021/03/29 13:48:25;;;;;;;3.30;1.50;;;36.60;14.20;;;;;;6297433;28;20032;-75
2021/03/29 13:51:27;;;;;;;2.72;1.33;;;35.70;14.40;;;;;;6266809;28;20113;-76
2021/03/29 13:54:33;;;;;;;4.20;1.30;;;34.30;15.00;;;;;;6281791;28;20063;-76
2021/03/29 13:57:35;;;;;;;5.10;1.40;;;33.00;15.80;;;;;;6276269;28;20376;-75
2021/03/29 14:00:37;;;;;;;3.38;1.40;;;31.90;16.60;;;;;;6278287;28;20029;-75
2021/03/29 14:03:38;;;;;;;3.35;1.38;;;30.80;17.10;;;;;;6300251;28;20172;-76
2021/03/29 14:06:39;;;;;;;2.83;1.48;;;30.00;17.90;;;;;;6286592;28;20473;-76
2021/03/29 14:09:40;;;;;;;4.35;1.50;;;29.20;18.70;;;;;;6262733;28;20681;-76
2021/03/29 14:12:43;;;;;;;2.88;1.23;;;28.60;19.70;;;;;;6283295;28;20038;-76
2021/03/29 14:15:45;;;;;;;7.13;1.55;;;28.00;20.40;;;;;;6300570;28;20487;-76
2021/03/29 14:18:46;;;;;;;5.22;2.00;;;27.50;20.80;;;;;;6283378;28;20067;-76
2021/03/29 14:21:49;;;;;;;5.55;1.45;;;27.20;20.80;;;;;;6299880;28;20092;-76
2021/03/29 14:24:50;;;;;;;2.25;1.48;;;26.90;21.00;;;;;;6300572;28;20036;-76
2021/03/29 14:27:53;;;;;;;5.45;1.65;;;26.60;21.70;;;;;;6260864;28;20032;-76
2021/03/29 14:30:54;;;;;;;4.38;1.60;;;26.40;21.90;;;;;;6268047;28;20074;-75
2021/03/29 14:33:54;;;;;;;6.07;1.40;;;26.10;22.30;;;;;;6303443;28;20061;-75
2021/03/29 14:37:39;;;;;;;3.70;1.90;;;25.90;22.70;;;;;;6292698;28;20063;-76
2021/03/29 14:46:41;;;;;;;7.22;1.75;;;25.60;23.00;;;;;;6286786;28;20099;-75
2021/03/29 14:49:42;;;;;;;4.85;1.60;;;25.50;23.20;;;;;;6281785;28;20035;-76
2021/03/29 14:53:10;;;;;;;2.58;1.20;;;25.40;23.40;;;;;;6287110;28;20063;-75
2021/03/29 14:56:11;;;;;;;2.30;1.42;;;25.30;23.20;;;;;;6303673;28;20398;-75
2021/03/29 14:59:13;;;;;;;3.75;1.50;;;25.30;22.70;;;;;;6321551;28;20028;-76
2021/03/29 15:02:14;;;;;;;5.95;2.05;;;25.20;22.20;;;;;;6284220;28;20052;-76
2021/03/29 15:05:21;;;;;;;3.70;1.42;;;25.20;22.30;;;;;;6263350;28;20055;-75
2021/03/29 15:08:22;;;;;;;3.05;1.50;;;25.20;22.60;;;;;;6272971;28;20020;-75
2021/03/29 15:11:24;;;;;;;1.70;1.23;;;25.10;23.00;;;;;;6280142;28;20036;-77
2021/03/29 15:14:27;;;;;;;6.07;1.73;;;25.10;23.10;;;;;;6303685;28;20111;-77
2021/03/29 15:17:28;;;;;;;2.83;1.58;;;25.10;23.60;;;;;;6279696;28;20028;-76
2021/03/29 15:20:30;;;;;;;4.95;1.88;;;25.00;23.80;;;;;;6269055;28;20033;-76
2021/03/29 15:23:31;;;;;;;2.55;1.45;;;25.00;23.90;;;;;;6298139;28;20108;-76
2021/03/29 15:26:31;;;;;;;4.38;1.40;;;25.00;24.50;;;;;;6320303;28;20531;-75
2021/03/29 15:29:33;;;;;;;2.88;1.55;;;25.00;24.90;;;;;;6297563;28;20036;-76
2021/03/29 15:32:34;;;;;;;3.00;1.48;;;25.00;25.00;;;;;;6262760;28;20115;-76
2021/03/29 15:35:35;;;;;;;4.60;1.67;;;25.00;25.10;;;;;;6275319;28;20450;-76
2021/03/29 15:38:36;;;;;;;6.55;1.52;;;25.00;25.20;;;;;;6303902;28;20024;-75
2021/03/29 15:41:39;;;;;;;4.43;1.60;;;25.00;25.30;;;;;;6287383;28;20450;-75
2021/03/29 15:44:40;;;;;;;5.45;1.50;;;25.00;25.50;;;;;;6287112;28;20028;-75
2021/03/29 15:47:42;;;;;;;3.80;1.55;;;25.00;25.70;;;;;;6290542;28;20054;-76
2021/03/29 15:50:43;;;;;;;3.63;1.58;;;25.00;25.80;;;;;;6282706;28;20136;-75
2021/03/29 15:53:44;;;;;;;5.93;2.17;;;25.00;25.90;;;;;;6285949;28;20434;-75
2021/03/29 15:56:55;;;;;;;2.17;1.75;;;25.00;26.10;;;;;;6291898;28;20024;-76
2021/03/29 15:59:56;;;;;;;2.75;1.52;;;25.00;26.10;;;;;;6302717;28;20103;-76
2021/03/29 16:03:06;;;;;;;4.85;1.83;;;25.00;26.20;;;;;;6267933;28;20093;-76
2021/03/29 16:06:12;;;;;;;4.22;1.75;;;25.00;26.30;;;;;;6296446;28;20443;-75